sensor_id;sensor_type;location;lat;lon;timestamp;pressure;altitude;pressure_sealevel;temperature;humidity
29569;BME280;16501;51.462;14.346;2023-02-04T00:01:27;100378.53;;;2.55;100.00
29569;BME280;16501;51.462;14.346;2023-02-04T00:03:53;100339.66;;;2.35;100.00
29569;BME280;16501;51.462;14.346;2023-02-04T00:06:19;100369.09;;;2.53;100.00
29569;BME280;16501;51.462;14.346;2023-02-04T00:08:44;100397.13;;;2.55;100.00
29569;BME280;16501;51.462;14.346;2023-02-04T00:11:10;100395.97;;;2.52;100.00
29569;BME280;16501;51.462;14.346;2023-02-04T00:13:36;100416.97;;;2.50;100.00
29569;BME280;16501;51.462;14.346;2023-02-04T00:16:01;100401.25;;;2.39;100.00
29569;BME280;16501;51.462;14.346;2023-02-04T00:18:28;100424.13;;;2.43;100.00
29569;BME280;16501;51.462;14.346;2023-02-04T00:20:54;100435.31;;;2.33;100.00
29569;BME280;16501;51.462;14.346;2023-02-04T00:23:19;100458.59;;;2.39;100.00
29569;BME280;16501;51.462;14.346;2023-02-04T00:25:44;100470.59;;;2.25;100.00
29569;BME280;16501;51.462;14.346;2023-02-04T00:28:10;100464.38;;;2.14;100.00
29569;BME280;16501;51.462;14.346;2023-02-04T00:30:35;100428.69;;;1.85;100.00
29569;BME280;16501;51.462;14.346;2023-02-04T00:33:00;100484.50;;;2.14;100.00
29569;BME280;16501;51.462;14.346;2023-02-04T00:35:26;100496.06;;;2.09;100.00
29569;BME280;16501;51.462;14.346;2023-02-04T00:37:51;100515.81;;;2.07;100.00
29569;BME280;16501;51.462;14.346;2023-02-04T00:40:16;100540.69;;;2.11;100.00
29569;BME280;16501;51.462;14.346;2023-02-04T00:42:42;100525.06;;;1.86;100.00
29569;BME280;16501;51.462;14.346;2023-02-04T00:45:08;100542.31;;;2.01;100.00
29569;BME280;16501;51.462;14.346;2023-02-04T00:47:34;100551.84;;;2.00;100.00
29569;BME280;16501;51.462;14.346;2023-02-04T00:50:00;100545.59;;;1.89;100.00
29569;BME280;16501;51.462;14.346;2023-02-04T00:52:26;100577.13;;;1.99;100.00
29569;BME280;16501;51.462;14.346;2023-02-04T00:54:54;100577.09;;;2.02;100.00
29569;BME280;16501;51.462;14.346;2023-02-04T00:57:19;100590.16;;;1.98;100.00
29569;BME280;16501;51.462;14.346;2023-02-04T00:59:46;100592.91;;;1.98;100.00
29569;BME280;16501;51.462;14.346;2023-02-04T01:02:11;100597.66;;;1.98;100.00
29569;BME280;16501;51.462;14.346;2023-02-04T01:04:36;100626.53;;;1.93;100.00
29569;BME280;16501;51.462;14.346;2023-02-04T01:07:01;100623.38;;;1.91;100.00
29569;BME280;16501;51.462;14.346;2023-02-04T01:09:28;100610.47;;;1.74;100.00
29569;BME280;16501;51.462;14.346;2023-02-04T01:11:54;100635.25;;;1.92;100.00
29569;BME280;16501;51.462;14.346;2023-02-04T01:14:19;100610.91;;;1.65;100.00
29569;BME280;16501;51.462;14.346;2023-02-04T01:16:45;100605.06;;;1.52;100.00
29569;BME280;16501;51.462;14.346;2023-02-04T01:19:11;100619.59;;;1.63;100.00
29569;BME280;16501;51.462;14.346;2023-02-04T01:21:39;100661.72;;;1.89;100.00
29569;BME280;16501;51.462;14.346;2023-02-04T01:24:05;100675.94;;;1.91;100.00
29569;BME280;16501;51.462;14.346;2023-02-04T01:26:30;100674.41;;;1.76;100.00
29569;BME280;16501;51.462;14.346;2023-02-04T01:28:55;100709.16;;;1.80;100.00
29569;BME280;16501;51.462;14.346;2023-02-04T01:31:22;100710.75;;;1.81;100.00
29569;BME280;16501;51.462;14.346;2023-02-04T01:33:48;100706.00;;;1.82;100.00
29569;BME280;16501;51.462;14.346;2023-02-04T01:36:14;100732.88;;;1.74;100.00
29569;BME280;16501;51.462;14.346;2023-02-04T01:38:45;100735.25;;;1.76;100.00
29569;BME280;16501;51.462;14.346;2023-02-04T01:41:10;100740.81;;;1.65;100.00
29569;BME280;16501;51.462;14.346;2023-02-04T01:43:36;100764.53;;;1.66;100.00
29569;BME280;16501;51.462;14.346;2023-02-04T01:46:01;100750.69;;;1.66;100.00
29569;BME280;16501;51.462;14.346;2023-02-04T01:48:27;100774.41;;;1.56;100.00
29569;BME280;16501;51.462;14.346;2023-02-04T01:51:03;100810.38;;;1.38;100.00
29569;BME280;16501;51.462;14.346;2023-02-04T01:53:31;100789.47;;;1.08;100.00
29569;BME280;16501;51.462;14.346;2023-02-04T01:55:57;100831.28;;;1.28;98.92
29569;BME280;16501;51.462;14.346;2023-02-04T01:58:23;100799.31;;;0.99;97.99
29569;BME280;16501;51.462;14.346;2023-02-04T02:00:51;100784.31;;;0.78;96.65
29569;BME280;16501;51.462;14.346;2023-02-04T02:03:16;100878.25;;;1.21;98.18
29569;BME280;16501;51.462;14.346;2023-02-04T02:05:49;100880.63;;;1.26;98.42
29569;BME280;16501;51.462;14.346;2023-02-04T02:08:16;100854.16;;;0.97;96.71
29569;BME280;16501;51.462;14.346;2023-02-04T02:10:44;100871.91;;;1.03;97.24
29569;BME280;16501;51.462;14.346;2023-02-04T02:13:12;100911.00;;;1.19;97.19
29569;BME280;16501;51.462;14.346;2023-02-04T02:15:40;100881.41;;;1.09;96.95
29569;BME280;16501;51.462;14.346;2023-02-04T02:18:06;100898.75;;;1.06;97.75
29569;BME280;16501;51.462;14.346;2023-02-04T02:20:31;100926.41;;;1.27;98.22
29569;BME280;16501;51.462;14.346;2023-02-04T02:23:02;100929.94;;;1.17;97.54
29569;BME280;16501;51.462;14.346;2023-02-04T02:25:29;100938.25;;;1.17;97.18
29569;BME280;16501;51.462;14.346;2023-02-04T02:27:57;100958.34;;;1.21;95.59
29569;BME280;16501;51.462;14.346;2023-02-04T02:30:22;100959.16;;;1.22;96.10
29569;BME280;16501;51.462;14.346;2023-02-04T02:32:50;100968.56;;;1.03;96.66
29569;BME280;16501;51.462;14.346;2023-02-04T02:35:16;100952.81;;;1.03;96.97
29569;BME280;16501;51.462;14.346;2023-02-04T02:37:42;100965.81;;;1.03;96.64
29569;BME280;16501;51.462;14.346;2023-02-04T02:40:08;101008.84;;;1.18;95.64
29569;BME280;16501;51.462;14.346;2023-02-04T02:42:35;100994.66;;;1.16;96.42
29569;BME280;16501;51.462;14.346;2023-02-04T02:45:04;101007.69;;;1.16;96.86
29569;BME280;16501;51.462;14.346;2023-02-04T02:47:31;101004.91;;;1.16;96.51
29569;BME280;16501;51.462;14.346;2023-02-04T02:49:56;101019.09;;;1.10;96.18
29569;BME280;16501;51.462;14.346;2023-02-04T02:52:22;101019.50;;;1.16;95.98
29569;BME280;16501;51.462;14.346;2023-02-04T02:54:48;101040.44;;;1.17;94.29
29569;BME280;16501;51.462;14.346;2023-02-04T02:57:21;101027.78;;;1.09;94.42
29569;BME280;16501;51.462;14.346;2023-02-04T02:59:47;101057.00;;;1.13;93.82
29569;BME280;16501;51.462;14.346;2023-02-04T03:02:15;101056.66;;;1.22;94.44
29569;BME280;16501;51.462;14.346;2023-02-04T03:04:48;101074.78;;;1.20;94.63
29569;BME280;16501;51.462;14.346;2023-02-04T03:07:17;101072.38;;;1.15;94.70
29569;BME280;16501;51.462;14.346;2023-02-04T03:09:43;101071.59;;;1.14;94.95
29569;BME280;16501;51.462;14.346;2023-02-04T03:12:09;101100.00;;;1.15;93.82
29569;BME280;16501;51.462;14.346;2023-02-04T03:14:37;101108.31;;;1.18;94.22
29569;BME280;16501;51.462;14.346;2023-02-04T03:17:04;101118.22;;;1.26;94.53
29569;BME280;16501;51.462;14.346;2023-02-04T03:19:30;101128.09;;;1.27;93.90
29569;BME280;16501;51.462;14.346;2023-02-04T03:21:56;101132.38;;;1.18;94.60
29569;BME280;16501;51.462;14.346;2023-02-04T03:24:22;101140.66;;;1.14;93.31
29569;BME280;16501;51.462;14.346;2023-02-04T03:26:48;101139.44;;;1.11;94.36
29569;BME280;16501;51.462;14.346;2023-02-04T03:29:13;101137.84;;;1.03;94.42
29569;BME280;16501;51.462;14.346;2023-02-04T03:31:38;101166.34;;;1.22;95.18
29569;BME280;16501;51.462;14.346;2023-02-04T03:34:04;101188.88;;;1.27;95.91
29569;BME280;16501;51.462;14.346;2023-02-04T03:36:29;101190.84;;;1.30;96.61
29569;BME280;16501;51.462;14.346;2023-02-04T03:38:55;101205.91;;;1.37;96.92
29569;BME280;16501;51.462;14.346;2023-02-04T03:41:22;101218.81;;;1.18;95.28
29569;BME280;16501;51.462;14.346;2023-02-04T03:43:47;101208.03;;;0.99;95.90
29569;BME280;16501;51.462;14.346;2023-02-04T03:46:13;101222.38;;;1.15;96.07
29569;BME280;16501;51.462;14.346;2023-02-04T03:48:38;101214.41;;;1.06;96.04
29569;BME280;16501;51.462;14.346;2023-02-04T03:51:04;101224.25;;;1.04;95.90
29569;BME280;16501;51.462;14.346;2023-02-04T03:53:29;101221.75;;;0.88;94.88
29569;BME280;16501;51.462;14.346;2023-02-04T03:55:55;101256.25;;;1.08;95.75
29569;BME280;16501;51.462;14.346;2023-02-04T03:58:21;101263.81;;;1.15;96.31
29569;BME280;16501;51.462;14.346;2023-02-04T04:00:46;101253.00;;;0.99;96.38
29569;BME280;16501;51.462;14.346;2023-02-04T04:03:13;101284.31;;;1.14;95.69
29569;BME280;16501;51.462;14.346;2023-02-04T04:05:38;101257.66;;;0.88;95.17
29569;BME280;16501;51.462;14.346;2023-02-04T04:08:03;101296.81;;;1.01;94.58
29569;BME280;16501;51.462;14.346;2023-02-04T04:10:29;101285.19;;;0.77;94.75
29569;BME280;16501;51.462;14.346;2023-02-04T04:12:56;101324.03;;;0.99;95.33
29569;BME280;16501;51.462;14.346;2023-02-04T04:15:21;101284.53;;;0.53;95.27
29569;BME280;16501;51.462;14.346;2023-02-04T04:17:47;101269.19;;;0.52;96.44
29569;BME280;16501;51.462;14.346;2023-02-04T04:20:12;101354.03;;;1.00;97.02
29569;BME280;16501;51.462;14.346;2023-02-04T04:22:38;101344.47;;;0.94;96.26
29569;BME280;16501;51.462;14.346;2023-02-04T04:25:04;101280.56;;;0.47;95.68
29569;BME280;16501;51.462;14.346;2023-02-04T04:27:29;101338.31;;;0.67;96.57
29569;BME280;16501;51.462;14.346;2023-02-04T04:29:55;101353.00;;;0.78;96.84
29569;BME280;16501;51.462;14.346;2023-02-04T04:32:21;101370.44;;;0.82;96.27
29569;BME280;16501;51.462;14.346;2023-02-04T04:34:46;101385.09;;;0.90;97.11
29569;BME280;16501;51.462;14.346;2023-02-04T04:37:11;101383.84;;;0.84;97.51
29569;BME280;16501;51.462;14.346;2023-02-04T04:39:37;101394.50;;;0.85;97.18
29569;BME280;16501;51.462;14.346;2023-02-04T04:42:02;101404.34;;;0.83;98.57
29569;BME280;16501;51.462;14.346;2023-02-04T04:44:28;101368.41;;;0.45;98.78
29569;BME280;16501;51.462;14.346;2023-02-04T04:46:53;101420.53;;;0.84;98.62
29569;BME280;16501;51.462;14.346;2023-02-04T04:49:18;101421.66;;;0.80;98.62
29569;BME280;16501;51.462;14.346;2023-02-04T04:51:43;101424.88;;;0.85;98.94
29569;BME280;16501;51.462;14.346;2023-02-04T04:54:09;101440.19;;;0.79;99.23
29569;BME280;16501;51.462;14.346;2023-02-04T04:56:34;101387.53;;;0.27;99.06
29569;BME280;16501;51.462;14.346;2023-02-04T04:58:59;101458.50;;;0.61;99.43
29569;BME280;16501;51.462;14.346;2023-02-04T05:01:26;101463.22;;;0.60;99.54
29569;BME280;16501;51.462;14.346;2023-02-04T05:03:52;101471.47;;;0.56;100.00
29569;BME280;16501;51.462;14.346;2023-02-04T05:06:18;101480.44;;;0.50;100.00
29569;BME280;16501;51.462;14.346;2023-02-04T05:08:49;101471.50;;;0.30;99.94
29569;BME280;16501;51.462;14.346;2023-02-04T05:11:14;101430.13;;;0.03;100.00
29569;BME280;16501;51.462;14.346;2023-02-04T05:13:40;101499.88;;;0.30;99.98
29569;BME280;16501;51.462;14.346;2023-02-04T05:16:05;101523.03;;;0.49;100.00
29569;BME280;16501;51.462;14.346;2023-02-04T05:18:32;101443.41;;;-0.06;100.00
29569;BME280;16501;51.462;14.346;2023-02-04T05:20:57;101521.00;;;0.46;100.00
29569;BME280;16501;51.462;14.346;2023-02-04T05:23:22;101527.53;;;0.34;100.00
29569;BME280;16501;51.462;14.346;2023-02-04T05:25:47;101529.88;;;0.32;100.00
29569;BME280;16501;51.462;14.346;2023-02-04T05:28:13;101542.47;;;0.33;100.00
29569;BME280;16501;51.462;14.346;2023-02-04T05:30:38;101559.41;;;0.31;100.00
29569;BME280;16501;51.462;14.346;2023-02-04T05:33:03;101567.75;;;0.35;100.00
29569;BME280;16501;51.462;14.346;2023-02-04T05:35:29;101570.00;;;0.29;100.00
29569;BME280;16501;51.462;14.346;2023-02-04T05:37:54;101573.78;;;0.17;100.00
29569;BME280;16501;51.462;14.346;2023-02-04T05:40:19;101588.63;;;0.09;100.00
29569;BME280;16501;51.462;14.346;2023-02-04T05:42:45;101586.22;;;0.08;100.00
29569;BME280;16501;51.462;14.346;2023-02-04T05:45:15;101593.13;;;-0.02;100.00
29569;BME280;16501;51.462;14.346;2023-02-04T05:47:41;101571.69;;;-0.12;100.00
29569;BME280;16501;51.462;14.346;2023-02-04T05:50:07;101612.16;;;0.03;100.00
29569;BME280;16501;51.462;14.346;2023-02-04T05:52:34;101590.38;;;-0.02;100.00
29569;BME280;16501;51.462;14.346;2023-02-04T05:54:59;101619.75;;;0.10;100.00
29569;BME280;16501;51.462;14.346;2023-02-04T05:57:24;101620.13;;;0.08;100.00
29569;BME280;16501;51.462;14.346;2023-02-04T05:59:50;101649.66;;;0.08;100.00
29569;BME280;16501;51.462;14.346;2023-02-04T06:02:15;101636.66;;;0.08;100.00
29569;BME280;16501;51.462;14.346;2023-02-04T06:04:42;101583.00;;;-0.41;100.00
29569;BME280;16501;51.462;14.346;2023-02-04T06:07:07;101647.44;;;-0.06;100.00
29569;BME280;16501;51.462;14.346;2023-02-04T06:09:32;101624.47;;;-0.33;100.00
29569;BME280;16501;51.462;14.346;2023-02-04T06:11:58;101663.84;;;-0.13;100.00
29569;BME280;16501;51.462;14.346;2023-02-04T06:14:23;101642.19;;;-0.34;100.00
29569;BME280;16501;51.462;14.346;2023-02-04T06:16:48;101657.13;;;-0.35;100.00
29569;BME280;16501;51.462;14.346;2023-02-04T06:19:14;101679.84;;;-0.23;100.00
29569;BME280;16501;51.462;14.346;2023-02-04T06:21:39;101681.06;;;-0.20;100.00
29569;BME280;16501;51.462;14.346;2023-02-04T06:24:04;101686.50;;;-0.24;100.00
29569;BME280;16501;51.462;14.346;2023-02-04T06:26:31;101690.09;;;-0.20;100.00
29569;BME280;16501;51.462;14.346;2023-02-04T06:28:57;101695.97;;;-0.21;100.00
29569;BME280;16501;51.462;14.346;2023-02-04T06:31:22;101696.88;;;-0.17;100.00
29569;BME280;16501;51.462;14.346;2023-02-04T06:33:49;101699.63;;;-0.17;100.00
29569;BME280;16501;51.462;14.346;2023-02-04T06:36:15;101711.88;;;-0.14;100.00
29569;BME280;16501;51.462;14.346;2023-02-04T06:38:40;101712.31;;;-0.12;100.00
29569;BME280;16501;51.462;14.346;2023-02-04T06:41:08;101711.94;;;-0.11;100.00
29569;BME280;16501;51.462;14.346;2023-02-04T06:43:33;101721.03;;;-0.10;100.00
29569;BME280;16501;51.462;14.346;2023-02-04T06:45:58;101705.28;;;-0.29;100.00
29569;BME280;16501;51.462;14.346;2023-02-04T06:48:23;101722.84;;;-0.18;100.00
29569;BME280;16501;51.462;14.346;2023-02-04T06:50:50;101710.44;;;-0.28;100.00
29569;BME280;16501;51.462;14.346;2023-02-04T06:53:17;101718.03;;;-0.21;100.00
29569;BME280;16501;51.462;14.346;2023-02-04T06:55:42;101739.09;;;-0.13;100.00
29569;BME280;16501;51.462;14.346;2023-02-04T06:58:07;101719.72;;;-0.36;100.00
29569;BME280;16501;51.462;14.346;2023-02-04T07:00:33;101750.69;;;-0.23;100.00
29569;BME280;16501;51.462;14.346;2023-02-04T07:02:58;101751.81;;;-0.44;100.00
29569;BME280;16501;51.462;14.346;2023-02-04T07:05:24;101721.28;;;-0.54;100.00
29569;BME280;16501;51.462;14.346;2023-02-04T07:07:50;101705.31;;;-0.65;100.00
29569;BME280;16501;51.462;14.346;2023-02-04T07:10:17;101763.09;;;-0.33;100.00
29569;BME280;16501;51.462;14.346;2023-02-04T07:12:43;101716.75;;;-0.82;100.00
29569;BME280;16501;51.462;14.346;2023-02-04T07:15:09;101761.22;;;-0.29;100.00
29569;BME280;16501;51.462;14.346;2023-02-04T07:17:34;101762.81;;;-0.28;100.00
29569;BME280;16501;51.462;14.346;2023-02-04T07:20:01;101780.44;;;-0.13;100.00
29569;BME280;16501;51.462;14.346;2023-02-04T07:22:30;101775.00;;;-0.09;100.00
29569;BME280;16501;51.462;14.346;2023-02-04T07:24:55;101770.13;;;-0.16;100.00
29569;BME280;16501;51.462;14.346;2023-02-04T07:27:22;101776.75;;;-0.01;100.00
29569;BME280;16501;51.462;14.346;2023-02-04T07:29:48;101784.59;;;-0.03;100.00
29569;BME280;16501;51.462;14.346;2023-02-04T07:32:13;101785.81;;;-0.01;100.00
29569;BME280;16501;51.462;14.346;2023-02-04T07:34:38;101748.75;;;-0.23;100.00
29569;BME280;16501;51.462;14.346;2023-02-04T07:37:05;101780.22;;;-0.04;100.00
29569;BME280;16501;51.462;14.346;2023-02-04T07:39:31;101787.84;;;0.03;100.00
29569;BME280;16501;51.462;14.346;2023-02-04T07:41:57;101737.13;;;-0.32;100.00
29569;BME280;16501;51.462;14.346;2023-02-04T07:44:22;101796.47;;;0.01;100.00
29569;BME280;16501;51.462;14.346;2023-02-04T07:46:47;101787.41;;;0.01;100.00
29569;BME280;16501;51.462;14.346;2023-02-04T07:49:14;101800.31;;;-0.04;100.00
29569;BME280;16501;51.462;14.346;2023-02-04T07:51:39;101803.75;;;-0.10;100.00
29569;BME280;16501;51.462;14.346;2023-02-04T07:54:05;101776.81;;;-0.17;100.00
29569;BME280;16501;51.462;14.346;2023-02-04T07:56:30;101776.47;;;-0.15;100.00
29569;BME280;16501;51.462;14.346;2023-02-04T07:58:57;101794.50;;;0.02;100.00
29569;BME280;16501;51.462;14.346;2023-02-04T08:01:22;101809.25;;;0.09;100.00
29569;BME280;16501;51.462;14.346;2023-02-04T08:03:50;101815.72;;;0.17;100.00
29569;BME280;16501;51.462;14.346;2023-02-04T08:06:15;101792.25;;;-0.12;100.00
29569;BME280;16501;51.462;14.346;2023-02-04T08:08:40;101771.38;;;-0.33;100.00
29569;BME280;16501;51.462;14.346;2023-02-04T08:11:06;101833.50;;;0.20;100.00
29569;BME280;16501;51.462;14.346;2023-02-04T08:13:31;101834.44;;;0.08;100.00
29569;BME280;16501;51.462;14.346;2023-02-04T08:15:57;101812.53;;;-0.05;100.00
29569;BME280;16501;51.462;14.346;2023-02-04T08:18:23;101815.63;;;-0.06;100.00
29569;BME280;16501;51.462;14.346;2023-02-04T08:20:49;101846.88;;;0.17;100.00
29569;BME280;16501;51.462;14.346;2023-02-04T08:23:15;101825.94;;;-0.03;100.00
29569;BME280;16501;51.462;14.346;2023-02-04T08:25:40;101851.34;;;0.06;100.00
29569;BME280;16501;51.462;14.346;2023-02-04T08:28:06;101841.47;;;0.05;100.00
29569;BME280;16501;51.462;14.346;2023-02-04T08:30:32;101863.22;;;0.26;100.00
29569;BME280;16501;51.462;14.346;2023-02-04T08:32:57;101874.53;;;0.41;100.00
29569;BME280;16501;51.462;14.346;2023-02-04T08:35:23;101870.91;;;0.56;100.00
29569;BME280;16501;51.462;14.346;2023-02-04T08:37:48;101835.09;;;0.40;100.00
29569;BME280;16501;51.462;14.346;2023-02-04T08:40:15;101884.94;;;0.90;100.00
29569;BME280;16501;51.462;14.346;2023-02-04T08:42:40;101889.97;;;0.84;100.00
29569;BME280;16501;51.462;14.346;2023-02-04T08:45:06;101859.34;;;0.70;100.00
29569;BME280;16501;51.462;14.346;2023-02-04T08:47:32;101907.16;;;1.93;100.00
29569;BME280;16501;51.462;14.346;2023-02-04T08:49:57;101913.06;;;1.92;100.00
29569;BME280;16501;51.462;14.346;2023-02-04T08:52:23;101922.34;;;1.53;100.00
29569;BME280;16501;51.462;14.346;2023-02-04T08:54:48;101911.06;;;1.65;100.00
29569;BME280;16501;51.462;14.346;2023-02-04T08:57:13;101933.03;;;1.55;100.00
29569;BME280;16501;51.462;14.346;2023-02-04T08:59:39;101905.09;;;1.13;100.00
29569;BME280;16501;51.462;14.346;2023-02-04T09:02:04;101907.44;;;0.92;100.00
29569;BME280;16501;51.462;14.346;2023-02-04T09:04:31;101891.34;;;0.74;100.00
29569;BME280;16501;51.462;14.346;2023-02-04T09:06:57;101939.47;;;1.16;100.00
29569;BME280;16501;51.462;14.346;2023-02-04T09:09:24;101935.00;;;1.31;100.00
29569;BME280;16501;51.462;14.346;2023-02-04T09:11:50;101946.66;;;1.44;100.00
29569;BME280;16501;51.462;14.346;2023-02-04T09:14:15;101940.72;;;1.42;100.00
29569;BME280;16501;51.462;14.346;2023-02-04T09:16:41;101943.72;;;1.56;100.00
29569;BME280;16501;51.462;14.346;2023-02-04T09:19:06;101960.19;;;2.25;100.00
29569;BME280;16501;51.462;14.346;2023-02-04T09:24:49;101944.78;;;1.98;100.00
29569;BME280;16501;51.462;14.346;2023-02-04T09:27:15;101959.84;;;2.00;100.00
29569;BME280;16501;51.462;14.346;2023-02-04T09:29:40;101973.88;;;1.65;100.00
29569;BME280;16501;51.462;14.346;2023-02-04T09:32:06;101965.41;;;1.54;100.00
29569;BME280;16501;51.462;14.346;2023-02-04T09:34:31;101962.53;;;1.47;100.00
29569;BME280;16501;51.462;14.346;2023-02-04T09:36:58;101968.34;;;1.42;100.00
29569;BME280;16501;51.462;14.346;2023-02-04T09:39:23;101975.81;;;1.38;100.00
29569;BME280;16501;51.462;14.346;2023-02-04T09:41:49;101969.25;;;1.26;100.00
29569;BME280;16501;51.462;14.346;2023-02-04T09:44:19;101969.63;;;1.25;100.00
29569;BME280;16501;51.462;14.346;2023-02-04T09:46:48;101960.47;;;1.21;100.00
29569;BME280;16501;51.462;14.346;2023-02-04T09:49:14;101991.91;;;1.55;100.00
29569;BME280;16501;51.462;14.346;2023-02-04T09:51:40;101997.25;;;1.67;100.00
29569;BME280;16501;51.462;14.346;2023-02-04T09:54:11;101956.31;;;1.54;100.00
29569;BME280;16501;51.462;14.346;2023-02-04T09:56:38;101948.78;;;2.00;100.00
29569;BME280;16501;51.462;14.346;2023-02-04T09:59:10;101998.22;;;3.27;100.00
29569;BME280;16501;51.462;14.346;2023-02-04T10:01:36;102009.34;;;4.20;94.45
29569;BME280;16501;51.462;14.346;2023-02-04T10:04:01;101999.88;;;4.28;91.32
29569;BME280;16501;51.462;14.346;2023-02-04T10:06:27;101921.00;;;4.40;88.21
29569;BME280;16501;51.462;14.346;2023-02-04T10:08:53;101971.34;;;5.33;86.68
29569;BME280;16501;51.462;14.346;2023-02-04T10:11:19;102018.66;;;5.73;83.43
29569;BME280;16501;51.462;14.346;2023-02-04T10:13:48;102016.31;;;6.21;82.45
29569;BME280;16501;51.462;14.346;2023-02-04T10:16:18;102022.25;;;5.88;81.30
29569;BME280;16501;51.462;14.346;2023-02-04T10:18:44;102019.47;;;5.80;79.89
29569;BME280;16501;51.462;14.346;2023-02-04T10:21:29;102022.25;;;5.88;81.14
29569;BME280;16501;51.462;14.346;2023-02-04T10:23:57;102023.44;;;5.86;77.62
29569;BME280;16501;51.462;14.346;2023-02-04T10:26:29;102028.25;;;6.00;77.90
29569;BME280;16501;51.462;14.346;2023-02-04T10:29:04;102032.59;;;6.52;79.35
29569;BME280;16501;51.462;14.346;2023-02-04T10:31:31;102040.56;;;6.46;72.50
29569;BME280;16501;51.462;14.346;2023-02-04T10:34:10;102038.19;;;6.16;73.15
29569;BME280;16501;51.462;14.346;2023-02-04T10:36:36;102031.78;;;5.47;75.39
29569;BME280;16501;51.462;14.346;2023-02-04T10:39:13;102032.66;;;4.63;74.87
29569;BME280;16501;51.462;14.346;2023-02-04T10:41:50;102035.72;;;4.51;78.33
29569;BME280;16501;51.462;14.346;2023-02-04T10:44:44;102022.78;;;4.14;80.98
29569;BME280;16501;51.462;14.346;2023-02-04T10:47:25;102028.34;;;4.14;83.60
29569;BME280;16501;51.462;14.346;2023-02-04T10:50:03;102013.09;;;3.93;82.21
29569;BME280;16501;51.462;14.346;2023-02-04T10:52:47;102032.72;;;3.70;83.81
29569;BME280;16501;51.462;14.346;2023-02-04T10:55:16;102062.31;;;3.55;84.61
29569;BME280;16501;51.462;14.346;2023-02-04T10:57:44;102038.38;;;3.40;85.69
29569;BME280;16501;51.462;14.346;2023-02-04T11:03:04;102046.00;;;3.13;86.22
29569;BME280;16501;51.462;14.346;2023-02-04T11:05:34;102013.28;;;2.92;87.85
29569;BME280;16501;51.462;14.346;2023-02-04T11:08:01;102042.34;;;3.05;88.77
29569;BME280;16501;51.462;14.346;2023-02-04T11:10:32;102055.50;;;2.81;90.00
29569;BME280;16501;51.462;14.346;2023-02-04T11:13:05;102048.84;;;2.86;90.24
29569;BME280;16501;51.462;14.346;2023-02-04T11:15:48;102037.94;;;2.70;87.64
29569;BME280;16501;51.462;14.346;2023-02-04T11:20:52;102034.84;;;2.75;86.08
29569;BME280;16501;51.462;14.346;2023-02-04T11:34:24;102048.47;;;2.88;88.22
29569;BME280;16501;51.462;14.346;2023-02-04T11:37:14;102052.31;;;2.79;85.20
29569;BME280;16501;51.462;14.346;2023-02-04T11:39:42;102063.09;;;2.58;83.98
29569;BME280;16501;51.462;14.346;2023-02-04T11:42:40;102059.47;;;2.54;85.39
29569;BME280;16501;51.462;14.346;2023-02-04T11:45:23;102052.66;;;2.48;86.00
29569;BME280;16501;51.462;14.346;2023-02-04T11:47:50;102062.88;;;2.43;86.35
29569;BME280;16501;51.462;14.346;2023-02-04T11:50:20;102061.34;;;2.46;86.97
29569;BME280;16501;51.462;14.346;2023-02-04T11:52:46;102077.91;;;2.42;87.60
29569;BME280;16501;51.462;14.346;2023-02-04T11:55:11;102059.56;;;2.34;86.68
29569;BME280;16501;51.462;14.346;2023-02-04T11:57:39;102059.16;;;2.32;86.89
29569;BME280;16501;51.462;14.346;2023-02-04T12:00:11;102065.06;;;2.31;86.50
29569;BME280;16501;51.462;14.346;2023-02-04T12:02:44;102050.75;;;2.25;86.93
29569;BME280;16501;51.462;14.346;2023-02-04T12:05:16;102057.13;;;2.29;86.02
29569;BME280;16501;51.462;14.346;2023-02-04T12:07:43;102022.53;;;2.42;85.23
29569;BME280;16501;51.462;14.346;2023-02-04T12:10:12;102061.47;;;3.51;84.36
29569;BME280;16501;51.462;14.346;2023-02-04T12:12:43;102075.19;;;3.37;83.53
29569;BME280;16501;51.462;14.346;2023-02-04T12:15:17;102056.31;;;3.16;81.27
29569;BME280;16501;51.462;14.346;2023-02-04T12:17:44;102071.63;;;3.06;81.58
29569;BME280;16501;51.462;14.346;2023-02-04T12:20:14;102064.91;;;2.77;80.12
29569;BME280;16501;51.462;14.346;2023-02-04T12:22:40;102062.38;;;2.64;82.18
29569;BME280;16501;51.462;14.346;2023-02-04T12:25:05;102057.09;;;2.56;82.66
29569;BME280;16501;51.462;14.346;2023-02-04T12:27:31;102061.50;;;2.57;83.80
29569;BME280;16501;51.462;14.346;2023-02-04T12:29:56;102069.00;;;2.56;82.57
29569;BME280;16501;51.462;14.346;2023-02-04T12:32:21;102072.16;;;2.55;84.78
29569;BME280;16501;51.462;14.346;2023-02-04T12:34:47;102083.53;;;2.50;84.40
29569;BME280;16501;51.462;14.346;2023-02-04T12:37:13;102040.81;;;2.24;83.87
29569;BME280;16501;51.462;14.346;2023-02-04T12:39:38;102088.66;;;2.48;83.45
29569;BME280;16501;51.462;14.346;2023-02-04T12:42:04;102028.91;;;2.20;83.63
29569;BME280;16501;51.462;14.346;2023-02-04T12:44:31;102046.16;;;2.10;84.01
29569;BME280;16501;51.462;14.346;2023-02-04T12:46:56;102090.59;;;2.20;84.45
29569;BME280;16501;51.462;14.346;2023-02-04T12:49:23;102095.84;;;2.02;87.77
29569;BME280;16501;51.462;14.346;2023-02-04T12:51:50;102067.91;;;1.65;89.87
29569;BME280;16501;51.462;14.346;2023-02-04T12:54:16;102066.63;;;1.82;90.42
29569;BME280;16501;51.462;14.346;2023-02-04T12:56:41;102054.44;;;1.63;91.66
29569;BME280;16501;51.462;14.346;2023-02-04T12:59:06;102092.56;;;1.97;91.70
29569;BME280;16501;51.462;14.346;2023-02-04T13:01:33;102084.38;;;1.81;93.28